METAR Data
IDs: Format: Raw Decoded Include TAF

Data at: 0011 UTC 19 Oct 2019

METAR for:EBFS (Florennes(AB), --, BX)
Text:EBFS 182355Z AUTO 16010KT 9999 BKN140/// 10/08 Q1007 BLU
Temperature: 10.0°C ( 50°F)
Dewpoint: 8.0°C ( 46°F) [RH = 87%]
Pressure (altimeter):29.73 inches Hg (1007.0 mb)
Winds:from the SSE (160 degrees) at 12 MPH (10 knots; 5.1 m/s)
Visibility:6 or more sm (10+ km)
Ceiling:14000 feet AGL
Clouds: broken clouds at 14000 feet AGL

TAF for:EBFS (Florennes(AB), --, BX)
Text:No data found